sensor_id;sensor_type;location;lat;lon;timestamp;P1;durP1;ratioP1;P2;durP2;ratioP2
51862;SDS011;37900;52.996;6.278;2023-04-19T00:01:25;6.38;;;3.30;;
51862;SDS011;37900;52.996;6.278;2023-04-19T00:03:52;4.38;;;2.97;;
51862;SDS011;37900;52.996;6.278;2023-04-19T00:06:19;4.65;;;3.10;;
51862;SDS011;37900;52.996;6.278;2023-04-19T00:08:45;4.93;;;3.47;;
51862;SDS011;37900;52.996;6.278;2023-04-19T00:11:10;4.35;;;3.25;;
51862;SDS011;37900;52.996;6.278;2023-04-19T00:13:36;3.97;;;3.22;;
51862;SDS011;37900;52.996;6.278;2023-04-19T00:16:02;4.45;;;3.20;;
51862;SDS011;37900;52.996;6.278;2023-04-19T00:18:28;4.80;;;3.13;;
51862;SDS011;37900;52.996;6.278;2023-04-19T00:20:54;4.88;;;3.30;;
51862;SDS011;37900;52.996;6.278;2023-04-19T00:23:20;3.92;;;3.40;;
51862;SDS011;37900;52.996;6.278;2023-04-19T00:25:47;4.90;;;3.45;;
51862;SDS011;37900;52.996;6.278;2023-04-19T00:28:13;5.82;;;3.10;;
51862;SDS011;37900;52.996;6.278;2023-04-19T00:30:39;5.63;;;3.63;;
51862;SDS011;37900;52.996;6.278;2023-04-19T00:33:04;3.58;;;2.92;;
51862;SDS011;37900;52.996;6.278;2023-04-19T00:35:36;4.72;;;2.70;;
51862;SDS011;37900;52.996;6.278;2023-04-19T00:38:03;4.38;;;3.28;;
51862;SDS011;37900;52.996;6.278;2023-04-19T00:40:30;4.45;;;3.00;;
51862;SDS011;37900;52.996;6.278;2023-04-19T00:42:56;4.65;;;3.10;;
51862;SDS011;37900;52.996;6.278;2023-04-19T00:45:22;4.10;;;2.83;;
51862;SDS011;37900;52.996;6.278;2023-04-19T00:47:49;4.38;;;3.45;;
51862;SDS011;37900;52.996;6.278;2023-04-19T00:50:15;5.20;;;3.28;;
51862;SDS011;37900;52.996;6.278;2023-04-19T00:52:41;3.95;;;3.00;;
51862;SDS011;37900;52.996;6.278;2023-04-19T00:55:08;4.78;;;2.75;;
51862;SDS011;37900;52.996;6.278;2023-04-19T00:57:34;4.88;;;3.05;;
51862;SDS011;37900;52.996;6.278;2023-04-19T01:00:02;4.20;;;2.80;;
51862;SDS011;37900;52.996;6.278;2023-04-19T01:02:30;4.03;;;3.13;;
51862;SDS011;37900;52.996;6.278;2023-04-19T01:04:56;4.43;;;3.15;;
51862;SDS011;37900;52.996;6.278;2023-04-19T01:07:22;3.03;;;2.47;;
51862;SDS011;37900;52.996;6.278;2023-04-19T01:09:48;4.28;;;3.20;;
51862;SDS011;37900;52.996;6.278;2023-04-19T01:12:14;5.03;;;2.95;;
51862;SDS011;37900;52.996;6.278;2023-04-19T01:14:40;3.03;;;2.72;;
51862;SDS011;37900;52.996;6.278;2023-04-19T01:17:06;5.97;;;2.78;;
51862;SDS011;37900;52.996;6.278;2023-04-19T01:19:32;5.17;;;3.13;;
51862;SDS011;37900;52.996;6.278;2023-04-19T01:22:01;4.00;;;3.03;;
51862;SDS011;37900;52.996;6.278;2023-04-19T01:24:30;4.10;;;3.30;;
51862;SDS011;37900;52.996;6.278;2023-04-19T01:26:57;5.40;;;3.30;;
51862;SDS011;37900;52.996;6.278;2023-04-19T01:29:23;3.85;;;2.95;;
51862;SDS011;37900;52.996;6.278;2023-04-19T01:31:49;4.53;;;3.15;;
51862;SDS011;37900;52.996;6.278;2023-04-19T01:34:18;3.92;;;2.50;;
51862;SDS011;37900;52.996;6.278;2023-04-19T01:36:44;2.90;;;2.53;;
51862;SDS011;37900;52.996;6.278;2023-04-19T01:39:10;3.50;;;2.80;;
51862;SDS011;37900;52.996;6.278;2023-04-19T01:41:36;6.63;;;3.65;;
51862;SDS011;37900;52.996;6.278;2023-04-19T01:44:02;4.05;;;2.80;;
51862;SDS011;37900;52.996;6.278;2023-04-19T01:46:28;4.40;;;3.25;;
51862;SDS011;37900;52.996;6.278;2023-04-19T01:48:53;4.28;;;2.78;;
51862;SDS011;37900;52.996;6.278;2023-04-19T01:51:19;3.42;;;2.90;;
51862;SDS011;37900;52.996;6.278;2023-04-19T01:53:46;3.90;;;3.00;;
51862;SDS011;37900;52.996;6.278;2023-04-19T01:56:16;4.80;;;3.05;;
51862;SDS011;37900;52.996;6.278;2023-04-19T01:58:42;3.97;;;3.25;;
51862;SDS011;37900;52.996;6.278;2023-04-19T02:01:08;3.65;;;2.75;;
51862;SDS011;37900;52.996;6.278;2023-04-19T02:03:36;3.10;;;2.80;;
51862;SDS011;37900;52.996;6.278;2023-04-19T02:06:02;3.40;;;2.60;;
51862;SDS011;37900;52.996;6.278;2023-04-19T02:08:28;4.35;;;3.45;;
51862;SDS011;37900;52.996;6.278;2023-04-19T02:10:54;3.72;;;2.65;;
51862;SDS011;37900;52.996;6.278;2023-04-19T02:13:20;3.50;;;2.40;;
51862;SDS011;37900;52.996;6.278;2023-04-19T02:15:46;3.80;;;2.78;;
51862;SDS011;37900;52.996;6.278;2023-04-19T02:18:12;3.10;;;2.67;;
51862;SDS011;37900;52.996;6.278;2023-04-19T02:20:38;3.40;;;2.80;;
51862;SDS011;37900;52.996;6.278;2023-04-19T02:23:04;4.15;;;2.40;;
51862;SDS011;37900;52.996;6.278;2023-04-19T02:25:29;4.22;;;2.72;;
51862;SDS011;37900;52.996;6.278;2023-04-19T02:27:55;3.90;;;2.22;;
51862;SDS011;37900;52.996;6.278;2023-04-19T02:30:21;3.75;;;2.90;;
51862;SDS011;37900;52.996;6.278;2023-04-19T02:32:47;3.53;;;2.95;;
51862;SDS011;37900;52.996;6.278;2023-04-19T02:35:13;3.63;;;2.42;;
51862;SDS011;37900;52.996;6.278;2023-04-19T02:37:39;4.35;;;2.72;;
51862;SDS011;37900;52.996;6.278;2023-04-19T02:40:05;3.60;;;2.78;;
51862;SDS011;37900;52.996;6.278;2023-04-19T02:42:31;3.25;;;2.30;;
51862;SDS011;37900;52.996;6.278;2023-04-19T02:44:57;3.53;;;2.38;;
51862;SDS011;37900;52.996;6.278;2023-04-19T02:47:23;4.32;;;2.83;;
51862;SDS011;37900;52.996;6.278;2023-04-19T02:49:48;3.17;;;2.53;;
51862;SDS011;37900;52.996;6.278;2023-04-19T02:52:14;3.17;;;2.30;;
51862;SDS011;37900;52.996;6.278;2023-04-19T02:54:40;3.30;;;2.90;;
51862;SDS011;37900;52.996;6.278;2023-04-19T02:57:06;3.58;;;2.88;;
51862;SDS011;37900;52.996;6.278;2023-04-19T02:59:32;3.63;;;2.88;;
51862;SDS011;37900;52.996;6.278;2023-04-19T03:01:57;3.97;;;2.88;;
51862;SDS011;37900;52.996;6.278;2023-04-19T03:04:23;3.92;;;2.50;;
51862;SDS011;37900;52.996;6.278;2023-04-19T03:06:49;3.65;;;3.10;;
51862;SDS011;37900;52.996;6.278;2023-04-19T03:09:16;3.42;;;2.70;;
51862;SDS011;37900;52.996;6.278;2023-04-19T03:11:42;3.22;;;2.80;;
51862;SDS011;37900;52.996;6.278;2023-04-19T03:14:07;3.58;;;2.75;;
51862;SDS011;37900;52.996;6.278;2023-04-19T03:16:33;3.35;;;2.85;;
51862;SDS011;37900;52.996;6.278;2023-04-19T03:18:59;3.15;;;2.40;;
51862;SDS011;37900;52.996;6.278;2023-04-19T03:21:25;3.33;;;3.03;;
51862;SDS011;37900;52.996;6.278;2023-04-19T03:23:53;3.53;;;2.88;;
51862;SDS011;37900;52.996;6.278;2023-04-19T03:26:19;2.90;;;2.50;;
51862;SDS011;37900;52.996;6.278;2023-04-19T03:28:45;3.97;;;2.67;;
51862;SDS011;37900;52.996;6.278;2023-04-19T03:31:10;3.35;;;2.45;;
51862;SDS011;37900;52.996;6.278;2023-04-19T03:33:36;3.15;;;2.58;;
51862;SDS011;37900;52.996;6.278;2023-04-19T03:36:02;4.93;;;2.80;;
51862;SDS011;37900;52.996;6.278;2023-04-19T03:38:28;3.38;;;2.60;;
51862;SDS011;37900;52.996;6.278;2023-04-19T03:40:54;4.13;;;2.40;;
51862;SDS011;37900;52.996;6.278;2023-04-19T03:43:20;3.05;;;2.50;;
51862;SDS011;37900;52.996;6.278;2023-04-19T03:45:46;3.67;;;2.60;;
51862;SDS011;37900;52.996;6.278;2023-04-19T03:48:12;2.45;;;2.20;;
51862;SDS011;37900;52.996;6.278;2023-04-19T03:50:37;3.17;;;2.72;;
51862;SDS011;37900;52.996;6.278;2023-04-19T03:53:03;4.20;;;2.60;;
51862;SDS011;37900;52.996;6.278;2023-04-19T03:55:29;3.22;;;2.65;;
51862;SDS011;37900;52.996;6.278;2023-04-19T03:57:55;2.45;;;2.22;;
51862;SDS011;37900;52.996;6.278;2023-04-19T04:00:21;3.47;;;2.60;;
51862;SDS011;37900;52.996;6.278;2023-04-19T04:02:47;3.90;;;2.83;;
51862;SDS011;37900;52.996;6.278;2023-04-19T04:05:13;3.55;;;2.53;;
51862;SDS011;37900;52.996;6.278;2023-04-19T04:07:39;2.72;;;2.47;;
51862;SDS011;37900;52.996;6.278;2023-04-19T04:10:06;3.30;;;2.58;;
51862;SDS011;37900;52.996;6.278;2023-04-19T04:12:32;3.30;;;2.42;;
51862;SDS011;37900;52.996;6.278;2023-04-19T04:14:58;3.17;;;2.55;;
51862;SDS011;37900;52.996;6.278;2023-04-19T04:17:24;3.03;;;2.53;;
51862;SDS011;37900;52.996;6.278;2023-04-19T04:19:50;4.28;;;2.63;;
51862;SDS011;37900;52.996;6.278;2023-04-19T04:22:15;2.83;;;2.60;;
51862;SDS011;37900;52.996;6.278;2023-04-19T04:24:41;3.67;;;2.70;;
51862;SDS011;37900;52.996;6.278;2023-04-19T04:27:08;2.63;;;2.30;;
51862;SDS011;37900;52.996;6.278;2023-04-19T04:29:35;4.50;;;2.83;;
51862;SDS011;37900;52.996;6.278;2023-04-19T04:32:02;2.75;;;2.53;;
51862;SDS011;37900;52.996;6.278;2023-04-19T04:34:32;2.60;;;2.03;;
51862;SDS011;37900;52.996;6.278;2023-04-19T04:36:58;4.97;;;2.50;;
51862;SDS011;37900;52.996;6.278;2023-04-19T04:39:24;2.97;;;2.53;;
51862;SDS011;37900;52.996;6.278;2023-04-19T04:41:50;3.53;;;2.70;;
51862;SDS011;37900;52.996;6.278;2023-04-19T04:44:17;2.77;;;2.40;;
51862;SDS011;37900;52.996;6.278;2023-04-19T04:46:44;2.88;;;2.42;;
51862;SDS011;37900;52.996;6.278;2023-04-19T04:49:10;3.10;;;2.22;;
51862;SDS011;37900;52.996;6.278;2023-04-19T04:51:36;3.40;;;2.55;;
51862;SDS011;37900;52.996;6.278;2023-04-19T04:54:01;5.13;;;2.88;;
51862;SDS011;37900;52.996;6.278;2023-04-19T04:56:29;4.05;;;2.70;;
51862;SDS011;37900;52.996;6.278;2023-04-19T04:58:55;2.33;;;2.10;;
51862;SDS011;37900;52.996;6.278;2023-04-19T05:01:21;3.08;;;2.65;;
51862;SDS011;37900;52.996;6.278;2023-04-19T05:03:48;4.43;;;2.57;;
51862;SDS011;37900;52.996;6.278;2023-04-19T05:06:14;2.80;;;2.17;;
51862;SDS011;37900;52.996;6.278;2023-04-19T05:08:40;4.97;;;3.28;;
51862;SDS011;37900;52.996;6.278;2023-04-19T05:11:06;3.92;;;2.47;;
51862;SDS011;37900;52.996;6.278;2023-04-19T05:13:32;3.17;;;2.55;;
51862;SDS011;37900;52.996;6.278;2023-04-19T05:15:58;2.72;;;2.40;;
51862;SDS011;37900;52.996;6.278;2023-04-19T05:18:23;3.60;;;2.60;;
51862;SDS011;37900;52.996;6.278;2023-04-19T05:20:49;3.05;;;2.55;;
51862;SDS011;37900;52.996;6.278;2023-04-19T05:23:15;3.10;;;2.75;;
51862;SDS011;37900;52.996;6.278;2023-04-19T05:25:41;3.97;;;2.60;;
51862;SDS011;37900;52.996;6.278;2023-04-19T05:28:06;3.10;;;2.38;;
51862;SDS011;37900;52.996;6.278;2023-04-19T05:30:32;2.92;;;2.60;;
51862;SDS011;37900;52.996;6.278;2023-04-19T05:32:58;4.10;;;2.55;;
51862;SDS011;37900;52.996;6.278;2023-04-19T05:35:24;2.90;;;2.60;;
51862;SDS011;37900;52.996;6.278;2023-04-19T05:37:50;2.80;;;2.50;;
51862;SDS011;37900;52.996;6.278;2023-04-19T05:40:15;2.97;;;2.30;;
51862;SDS011;37900;52.996;6.278;2023-04-19T05:42:41;2.45;;;2.17;;
51862;SDS011;37900;52.996;6.278;2023-04-19T05:45:08;3.00;;;2.60;;
51862;SDS011;37900;52.996;6.278;2023-04-19T05:47:34;3.83;;;2.85;;
51862;SDS011;37900;52.996;6.278;2023-04-19T05:49:59;2.70;;;2.38;;
51862;SDS011;37900;52.996;6.278;2023-04-19T05:52:25;2.72;;;2.10;;
51862;SDS011;37900;52.996;6.278;2023-04-19T05:54:51;3.08;;;2.55;;
51862;SDS011;37900;52.996;6.278;2023-04-19T05:57:17;2.78;;;2.45;;
51862;SDS011;37900;52.996;6.278;2023-04-19T05:59:42;3.33;;;2.38;;
51862;SDS011;37900;52.996;6.278;2023-04-19T06:02:08;2.88;;;2.40;;
51862;SDS011;37900;52.996;6.278;2023-04-19T06:04:34;2.65;;;1.98;;
51862;SDS011;37900;52.996;6.278;2023-04-19T06:07:00;3.28;;;2.40;;
51862;SDS011;37900;52.996;6.278;2023-04-19T06:09:26;2.92;;;2.20;;
51862;SDS011;37900;52.996;6.278;2023-04-19T06:11:51;2.17;;;1.98;;
51862;SDS011;37900;52.996;6.278;2023-04-19T06:14:18;2.45;;;2.10;;
51862;SDS011;37900;52.996;6.278;2023-04-19T06:16:44;2.40;;;2.17;;
51862;SDS011;37900;52.996;6.278;2023-04-19T06:19:10;2.85;;;2.42;;
51862;SDS011;37900;52.996;6.278;2023-04-19T06:21:36;3.38;;;2.45;;
51862;SDS011;37900;52.996;6.278;2023-04-19T06:24:02;2.88;;;2.22;;
51862;SDS011;37900;52.996;6.278;2023-04-19T06:26:27;2.45;;;2.13;;
51862;SDS011;37900;52.996;6.278;2023-04-19T06:28:53;2.20;;;2.00;;
51862;SDS011;37900;52.996;6.278;2023-04-19T06:31:19;2.63;;;2.20;;
51862;SDS011;37900;52.996;6.278;2023-04-19T06:33:45;2.75;;;2.45;;
51862;SDS011;37900;52.996;6.278;2023-04-19T06:36:11;3.08;;;2.50;;
51862;SDS011;37900;52.996;6.278;2023-04-19T06:38:37;2.78;;;2.47;;
51862;SDS011;37900;52.996;6.278;2023-04-19T06:41:03;3.42;;;2.30;;
51862;SDS011;37900;52.996;6.278;2023-04-19T06:43:29;2.70;;;2.35;;
51862;SDS011;37900;52.996;6.278;2023-04-19T06:45:58;2.33;;;2.08;;
51862;SDS011;37900;52.996;6.278;2023-04-19T06:48:24;2.80;;;2.40;;
51862;SDS011;37900;52.996;6.278;2023-04-19T06:50:50;2.17;;;1.88;;
51862;SDS011;37900;52.996;6.278;2023-04-19T06:53:16;2.67;;;2.08;;
51862;SDS011;37900;52.996;6.278;2023-04-19T06:55:41;3.03;;;2.30;;
51862;SDS011;37900;52.996;6.278;2023-04-19T06:58:08;2.53;;;1.88;;
51862;SDS011;37900;52.996;6.278;2023-04-19T07:00:37;2.92;;;2.28;;
51862;SDS011;37900;52.996;6.278;2023-04-19T07:03:03;2.05;;;1.80;;
51862;SDS011;37900;52.996;6.278;2023-04-19T07:05:29;3.22;;;2.53;;
51862;SDS011;37900;52.996;6.278;2023-04-19T07:07:55;3.17;;;2.42;;
51862;SDS011;37900;52.996;6.278;2023-04-19T07:10:22;3.60;;;2.38;;
51862;SDS011;37900;52.996;6.278;2023-04-19T07:12:47;7.45;;;2.70;;
51862;SDS011;37900;52.996;6.278;2023-04-19T07:15:13;2.67;;;2.10;;
51862;SDS011;37900;52.996;6.278;2023-04-19T07:17:39;4.35;;;2.20;;
51862;SDS011;37900;52.996;6.278;2023-04-19T07:20:05;4.55;;;2.47;;
51862;SDS011;37900;52.996;6.278;2023-04-19T07:22:31;2.87;;;2.37;;
51862;SDS011;37900;52.996;6.278;2023-04-19T07:24:57;3.45;;;2.60;;
51862;SDS011;37900;52.996;6.278;2023-04-19T07:27:23;5.50;;;2.72;;
51862;SDS011;37900;52.996;6.278;2023-04-19T07:29:49;3.40;;;2.53;;
51862;SDS011;37900;52.996;6.278;2023-04-19T07:32:16;3.80;;;1.98;;
51862;SDS011;37900;52.996;6.278;2023-04-19T07:34:42;5.35;;;2.85;;
51862;SDS011;37900;52.996;6.278;2023-04-19T07:37:07;2.90;;;2.45;;
51862;SDS011;37900;52.996;6.278;2023-04-19T07:39:33;4.20;;;2.50;;
51862;SDS011;37900;52.996;6.278;2023-04-19T07:41:59;3.10;;;2.42;;
51862;SDS011;37900;52.996;6.278;2023-04-19T07:44:27;4.15;;;2.58;;
51862;SDS011;37900;52.996;6.278;2023-04-19T07:46:53;2.95;;;2.30;;
51862;SDS011;37900;52.996;6.278;2023-04-19T07:49:19;4.70;;;2.35;;
51862;SDS011;37900;52.996;6.278;2023-04-19T07:51:45;3.38;;;2.60;;
51862;SDS011;37900;52.996;6.278;2023-04-19T07:54:10;2.67;;;2.20;;
51862;SDS011;37900;52.996;6.278;2023-04-19T07:56:36;3.20;;;2.40;;
51862;SDS011;37900;52.996;6.278;2023-04-19T07:59:02;3.55;;;2.40;;
51862;SDS011;37900;52.996;6.278;2023-04-19T08:01:28;5.13;;;3.00;;
51862;SDS011;37900;52.996;6.278;2023-04-19T08:03:54;3.70;;;2.80;;
51862;SDS011;37900;52.996;6.278;2023-04-19T08:06:20;6.30;;;3.58;;
51862;SDS011;37900;52.996;6.278;2023-04-19T08:08:46;8.35;;;3.65;;
51862;SDS011;37900;52.996;6.278;2023-04-19T08:11:12;5.38;;;3.92;;
51862;SDS011;37900;52.996;6.278;2023-04-19T08:13:38;6.22;;;3.10;;
51862;SDS011;37900;52.996;6.278;2023-04-19T08:16:04;6.22;;;3.10;;
51862;SDS011;37900;52.996;6.278;2023-04-19T08:18:30;7.00;;;3.38;;
51862;SDS011;37900;52.996;6.278;2023-04-19T08:20:57;5.25;;;3.47;;
51862;SDS011;37900;52.996;6.278;2023-04-19T08:23:22;7.93;;;3.65;;
51862;SDS011;37900;52.996;6.278;2023-04-19T08:25:49;6.40;;;3.53;;
51862;SDS011;37900;52.996;6.278;2023-04-19T08:28:15;4.95;;;2.65;;
51862;SDS011;37900;52.996;6.278;2023-04-19T08:30:41;7.13;;;2.85;;
51862;SDS011;37900;52.996;6.278;2023-04-19T08:33:07;4.47;;;2.50;;
51862;SDS011;37900;52.996;6.278;2023-04-19T08:35:33;4.97;;;3.30;;
51862;SDS011;37900;52.996;6.278;2023-04-19T08:38:00;4.30;;;2.67;;
51862;SDS011;37900;52.996;6.278;2023-04-19T08:40:27;7.70;;;3.03;;
51862;SDS011;37900;52.996;6.278;2023-04-19T08:42:55;6.03;;;2.78;;
51862;SDS011;37900;52.996;6.278;2023-04-19T08:45:22;4.32;;;2.60;;
51862;SDS011;37900;52.996;6.278;2023-04-19T08:47:51;3.17;;;2.17;;
51862;SDS011;37900;52.996;6.278;2023-04-19T08:50:19;5.70;;;2.95;;
51862;SDS011;37900;52.996;6.278;2023-04-19T08:52:46;7.03;;;2.90;;
51862;SDS011;37900;52.996;6.278;2023-04-19T08:55:12;4.30;;;2.40;;
51862;SDS011;37900;52.996;6.278;2023-04-19T08:57:40;8.45;;;3.10;;
51862;SDS011;37900;52.996;6.278;2023-04-19T09:00:06;4.93;;;2.75;;
51862;SDS011;37900;52.996;6.278;2023-04-19T09:02:43;3.78;;;2.63;;
51862;SDS011;37900;52.996;6.278;2023-04-19T09:05:13;5.15;;;2.67;;
51862;SDS011;37900;52.996;6.278;2023-04-19T09:07:40;3.70;;;2.63;;
51862;SDS011;37900;52.996;6.278;2023-04-19T09:10:11;4.40;;;2.70;;
51862;SDS011;37900;52.996;6.278;2023-04-19T09:12:40;4.85;;;2.72;;
51862;SDS011;37900;52.996;6.278;2023-04-19T09:15:07;4.00;;;2.40;;
51862;SDS011;37900;52.996;6.278;2023-04-19T09:17:37;4.15;;;2.30;;
51862;SDS011;37900;52.996;6.278;2023-04-19T09:20:04;4.40;;;3.08;;
51862;SDS011;37900;52.996;6.278;2023-04-19T09:22:31;3.50;;;2.60;;
51862;SDS011;37900;52.996;6.278;2023-04-19T09:24:57;4.47;;;2.57;;
51862;SDS011;37900;52.996;6.278;2023-04-19T09:29:52;2.55;;;2.15;;
51862;SDS011;37900;52.996;6.278;2023-04-19T09:32:22;4.63;;;2.55;;
51862;SDS011;37900;52.996;6.278;2023-04-19T09:37:18;3.65;;;2.20;;
51862;SDS011;37900;52.996;6.278;2023-04-19T09:39:44;2.85;;;2.33;;
51862;SDS011;37900;52.996;6.278;2023-04-19T09:42:09;2.97;;;2.25;;
51862;SDS011;37900;52.996;6.278;2023-04-19T09:44:35;5.32;;;2.42;;
51862;SDS011;37900;52.996;6.278;2023-04-19T09:47:01;7.03;;;2.80;;
51862;SDS011;37900;52.996;6.278;2023-04-19T09:49:27;3.50;;;2.28;;
51862;SDS011;37900;52.996;6.278;2023-04-19T09:51:53;4.45;;;2.35;;
51862;SDS011;37900;52.996;6.278;2023-04-19T09:56:48;9.13;;;2.83;;
51862;SDS011;37900;52.996;6.278;2023-04-19T09:59:14;9.38;;;5.45;;
51862;SDS011;37900;52.996;6.278;2023-04-19T10:01:47;18.10;;;8.27;;
51862;SDS011;37900;52.996;6.278;2023-04-19T10:06:51;17.67;;;7.38;;
51862;SDS011;37900;52.996;6.278;2023-04-19T10:09:19;7.72;;;4.75;;
51862;SDS011;37900;52.996;6.278;2023-04-19T10:11:49;11.88;;;5.00;;
51862;SDS011;37900;52.996;6.278;2023-04-19T10:14:22;10.75;;;5.40;;
51862;SDS011;37900;52.996;6.278;2023-04-19T10:16:49;12.20;;;5.68;;
51862;SDS011;37900;52.996;6.278;2023-04-19T10:19:16;10.38;;;5.10;;
51862;SDS011;37900;52.996;6.278;2023-04-19T10:21:44;8.07;;;5.18;;
51862;SDS011;37900;52.996;6.278;2023-04-19T10:24:12;9.48;;;5.22;;
51862;SDS011;37900;52.996;6.278;2023-04-19T10:32:38;7.57;;;4.90;;
51862;SDS011;37900;52.996;6.278;2023-04-19T10:35:09;10.07;;;5.28;;
51862;SDS011;37900;52.996;6.278;2023-04-19T10:37:44;10.60;;;5.20;;
51862;SDS011;37900;52.996;6.278;2023-04-19T10:43:17;8.07;;;4.13;;
51862;SDS011;37900;52.996;6.278;2023-04-19T10:45:44;5.97;;;3.90;;
51862;SDS011;37900;52.996;6.278;2023-04-19T10:56:11;7.07;;;3.55;;
51862;SDS011;37900;52.996;6.278;2023-04-19T11:04:02;6.53;;;3.80;;
51862;SDS011;37900;52.996;6.278;2023-04-19T11:06:28;5.22;;;3.20;;
51862;SDS011;37900;52.996;6.278;2023-04-19T11:08:54;5.87;;;3.03;;
51862;SDS011;37900;52.996;6.278;2023-04-19T11:11:21;6.45;;;3.30;;
51862;SDS011;37900;52.996;6.278;2023-04-19T11:13:47;8.57;;;3.63;;
51862;SDS011;37900;52.996;6.278;2023-04-19T11:16:13;4.90;;;2.70;;
51862;SDS011;37900;52.996;6.278;2023-04-19T11:18:39;7.43;;;3.53;;
51862;SDS011;37900;52.996;6.278;2023-04-19T11:21:05;5.18;;;2.72;;
51862;SDS011;37900;52.996;6.278;2023-04-19T11:23:31;5.57;;;2.88;;
51862;SDS011;37900;52.996;6.278;2023-04-19T11:25:57;4.45;;;3.03;;
51862;SDS011;37900;52.996;6.278;2023-04-19T11:28:23;5.45;;;3.05;;
51862;SDS011;37900;52.996;6.278;2023-04-19T11:30:49;3.47;;;2.38;;
51862;SDS011;37900;52.996;6.278;2023-04-19T11:33:18;5.78;;;2.60;;
51862;SDS011;37900;52.996;6.278;2023-04-19T11:35:48;3.28;;;2.53;;
51862;SDS011;37900;52.996;6.278;2023-04-19T11:38:14;3.40;;;2.20;;
51862;SDS011;37900;52.996;6.278;2023-04-19T11:40:40;2.80;;;2.05;;
51862;SDS011;37900;52.996;6.278;2023-04-19T11:43:06;4.97;;;2.95;;
51862;SDS011;37900;52.996;6.278;2023-04-19T11:45:33;4.55;;;2.42;;
51862;SDS011;37900;52.996;6.278;2023-04-19T11:48:01;3.65;;;1.95;;
51862;SDS011;37900;52.996;6.278;2023-04-19T11:50:47;3.70;;;1.85;;
51862;SDS011;37900;52.996;6.278;2023-04-19T11:53:18;3.47;;;2.15;;
51862;SDS011;37900;52.996;6.278;2023-04-19T11:55:52;2.78;;;1.92;;
51862;SDS011;37900;52.996;6.278;2023-04-19T12:01:02;2.95;;;1.77;;
51862;SDS011;37900;52.996;6.278;2023-04-19T12:03:31;3.50;;;2.03;;
51862;SDS011;37900;52.996;6.278;2023-04-19T12:06:01;2.40;;;2.00;;
51862;SDS011;37900;52.996;6.278;2023-04-19T12:08:35;3.90;;;1.92;;
51862;SDS011;37900;52.996;6.278;2023-04-19T12:11:07;2.67;;;1.60;;
51862;SDS011;37900;52.996;6.278;2023-04-19T12:13:33;2.15;;;1.45;;
51862;SDS011;37900;52.996;6.278;2023-04-19T12:15:58;2.53;;;1.50;;
51862;SDS011;37900;52.996;6.278;2023-04-19T12:18:24;3.25;;;1.65;;
51862;SDS011;37900;52.996;6.278;2023-04-19T12:20:51;1.95;;;1.48;;
51862;SDS011;37900;52.996;6.278;2023-04-19T12:23:18;2.95;;;2.17;;
51862;SDS011;37900;52.996;6.278;2023-04-19T12:25:45;3.47;;;1.98;;
51862;SDS011;37900;52.996;6.278;2023-04-19T12:28:12;3.42;;;2.00;;
51862;SDS011;37900;52.996;6.278;2023-04-19T12:30:39;4.67;;;1.70;;
51862;SDS011;37900;52.996;6.278;2023-04-19T12:33:05;2.20;;;1.73;;
51862;SDS011;37900;52.996;6.278;2023-04-19T12:35:32;2.20;;;1.42;;
51862;SDS011;37900;52.996;6.278;2023-04-19T12:37:58;3.00;;;1.80;;
51862;SDS011;37900;52.996;6.278;2023-04-19T12:40:25;2.05;;;1.40;;
51862;SDS011;37900;52.996;6.278;2023-04-19T12:42:51;2.58;;;1.70;;
51862;SDS011;37900;52.996;6.278;2023-04-19T12:45:18;3.87;;;1.70;;
51862;SDS011;37900;52.996;6.278;2023-04-19T12:47:44;2.83;;;1.53;;
51862;SDS011;37900;52.996;6.278;2023-04-19T12:50:12;1.67;;;1.38;;
51862;SDS011;37900;52.996;6.278;2023-04-19T12:52:38;2.53;;;1.50;;
51862;SDS011;37900;52.996;6.278;2023-04-19T12:55:05;2.47;;;1.80;;
51862;SDS011;37900;52.996;6.278;2023-04-19T12:57:31;2.17;;;1.40;;
51862;SDS011;37900;52.996;6.278;2023-04-19T12:59:57;4.20;;;1.83;;
51862;SDS011;37900;52.996;6.278;2023-04-19T13:02:23;2.83;;;1.73;;
51862;SDS011;37900;52.996;6.278;2023-04-19T13:04:48;1.90;;;1.45;;
51862;SDS011;37900;52.996;6.278;2023-04-19T13:07:15;2.30;;;1.60;;
51862;SDS011;37900;52.996;6.278;2023-04-19T13:09:40;2.28;;;1.45;;
51862;SDS011;37900;52.996;6.278;2023-04-19T13:12:06;2.47;;;1.42;;
51862;SDS011;37900;52.996;6.278;2023-04-19T13:14:32;2.13;;;1.30;;
51862;SDS011;37900;52.996;6.278;2023-04-19T13:16:58;2.83;;;1.50;;
51862;SDS011;37900;52.996;6.278;2023-04-19T13:19:24;2.67;;;1.73;;
51862;SDS011;37900;52.996;6.278;2023-04-19T13:21:50;2.03;;;1.80;;
51862;SDS011;37900;52.996;6.278;2023-04-19T13:24:16;1.67;;;1.38;;
51862;SDS011;37900;52.996;6.278;2023-04-19T13:26:42;2.15;;;1.50;;
51862;SDS011;37900;52.996;6.278;2023-04-19T13:29:10;1.58;;;1.23;;
51862;SDS011;37900;52.996;6.278;2023-04-19T13:31:36;2.55;;;1.70;;
51862;SDS011;37900;52.996;6.278;2023-04-19T13:34:02;2.08;;;1.52;;
51862;SDS011;37900;52.996;6.278;2023-04-19T13:36:28;2.00;;;1.30;;
51862;SDS011;37900;52.996;6.278;2023-04-19T13:38:54;1.48;;;1.20;;
51862;SDS011;37900;52.996;6.278;2023-04-19T13:41:20;1.95;;;1.60;;
51862;SDS011;37900;52.996;6.278;2023-04-19T13:43:46;1.73;;;1.20;;
51862;SDS011;37900;52.996;6.278;2023-04-19T13:46:11;2.40;;;1.50;;
51862;SDS011;37900;52.996;6.278;2023-04-19T13:48:37;1.80;;;1.20;;
51862;SDS011;37900;52.996;6.278;2023-04-19T13:51:03;1.30;;;1.20;;
51862;SDS011;37900;52.996;6.278;2023-04-19T13:53:30;2.60;;;1.53;;
51862;SDS011;37900;52.996;6.278;2023-04-19T13:55:55;2.05;;;1.48;;
51862;SDS011;37900;52.996;6.278;2023-04-19T13:58:21;2.67;;;1.35;;
51862;SDS011;37900;52.996;6.278;2023-04-19T14:00:49;1.52;;;1.13;;
51862;SDS011;37900;52.996;6.278;2023-04-19T14:03:15;2.03;;;1.45;;
51862;SDS011;37900;52.996;6.278;2023-04-19T14:05:41;1.60;;;1.35;;
51862;SDS011;37900;52.996;6.278;2023-04-19T14:08:08;1.77;;;1.20;;
51862;SDS011;37900;52.996;6.278;2023-04-19T14:10:34;2.00;;;1.23;;
51862;SDS011;37900;52.996;6.278;2023-04-19T14:13:00;2.03;;;1.30;;
51862;SDS011;37900;52.996;6.278;2023-04-19T14:15:26;1.52;;;1.33;;
51862;SDS011;37900;52.996;6.278;2023-04-19T14:17:52;1.73;;;1.40;;
51862;SDS011;37900;52.996;6.278;2023-04-19T14:20:18;1.63;;;1.20;;
51862;SDS011;37900;52.996;6.278;2023-04-19T14:22:44;2.67;;;1.27;;
51862;SDS011;37900;52.996;6.278;2023-04-19T14:25:10;1.50;;;1.10;;
51862;SDS011;37900;52.996;6.278;2023-04-19T14:27:36;1.98;;;1.42;;
51862;SDS011;37900;52.996;6.278;2023-04-19T14:30:03;2.20;;;1.45;;
51862;SDS011;37900;52.996;6.278;2023-04-19T14:32:30;1.58;;;1.42;;
51862;SDS011;37900;52.996;6.278;2023-04-19T14:34:56;1.20;;;1.10;;
51862;SDS011;37900;52.996;6.278;2023-04-19T14:37:22;1.75;;;1.20;;
51862;SDS011;37900;52.996;6.278;2023-04-19T14:39:48;1.33;;;1.20;;
51862;SDS011;37900;52.996;6.278;2023-04-19T14:42:14;1.75;;;1.17;;
51862;SDS011;37900;52.996;6.278;2023-04-19T14:44:39;2.63;;;1.50;;
51862;SDS011;37900;52.996;6.278;2023-04-19T14:47:05;1.73;;;1.15;;
51862;SDS011;37900;52.996;6.278;2023-04-19T14:49:31;2.92;;;1.48;;
51862;SDS011;37900;52.996;6.278;2023-04-19T14:51:57;2.05;;;1.50;;
51862;SDS011;37900;52.996;6.278;2023-04-19T14:54:23;2.35;;;1.65;;
51862;SDS011;37900;52.996;6.278;2023-04-19T14:56:48;2.17;;;1.52;;
51862;SDS011;37900;52.996;6.278;2023-04-19T14:59:14;1.55;;;1.45;;
51862;SDS011;37900;52.996;6.278;2023-04-19T15:01:40;3.10;;;1.55;;
51862;SDS011;37900;52.996;6.278;2023-04-19T15:04:06;1.77;;;1.23;;
51862;SDS011;37900;52.996;6.278;2023-04-19T15:06:32;1.45;;;1.27;;
51862;SDS011;37900;52.996;6.278;2023-04-19T15:08:58;2.10;;;1.27;;
51862;SDS011;37900;52.996;6.278;2023-04-19T15:11:24;1.58;;;1.27;;
51862;SDS011;37900;52.996;6.278;2023-04-19T15:13:50;2.03;;;1.35;;
51862;SDS011;37900;52.996;6.278;2023-04-19T15:16:16;1.00;;;0.95;;
51862;SDS011;37900;52.996;6.278;2023-04-19T15:18:41;2.67;;;1.60;;